Time;durP1;ratioP1;P1;durP2;ratioP2;P2;SDS_P1;SDS_P2;PMS_P1;PMS_P2;Temp;Humidity;BMP_temperature;BMP_pressure;BME280_temperature;BME280_humidity;BME280_pressure;Samples;Min_cycle;Max_cycle;Signal;HPM_P1;HPM_P2
2024/01/11 00:01:58;;;;;;;;;48.50;39.50;;;;;1.52;59.08;102382.78;5078065;27;45393;-41
2024/01/11 00:04:23;;;;;;;;;43.25;35.00;;;;;1.45;59.15;102377.75;5078332;27;45509;-39
2024/01/11 00:06:50;;;;;;;;;62.50;41.75;;;;;1.30;59.34;102356.38;5077611;27;46834;-40
2024/01/11 00:09:16;;;;;;;;;52.00;42.25;;;;;1.40;59.21;102399.78;5076549;28;45425;-39
2024/01/11 00:11:41;;;;;;;;;43.25;42.25;;;;;1.39;59.64;102387.56;5077867;27;45367;-40
2024/01/11 00:14:06;;;;;;;;;57.50;42.75;;;;;1.36;59.66;102387.69;5078056;27;45361;-41
2024/01/11 00:16:32;;;;;;;;;52.25;38.50;;;;;1.31;59.74;102379.97;5076171;28;47210;-41
2024/01/11 00:18:57;;;;;;;;;48.00;34.75;;;;;1.31;59.65;102385.19;5077630;27;45314;-39
2024/01/11 00:21:23;;;;;;;;;54.50;41.75;;;;;1.29;59.44;102389.63;5077746;27;45311;-41
2024/01/11 00:23:49;;;;;;;;;49.25;43.75;;;;;1.28;59.76;102385.28;5078062;27;45350;-41
2024/01/11 00:26:14;;;;;;;;;37.00;31.50;;;;;1.20;59.56;102375.03;5077501;27;46334;-40
2024/01/11 00:28:40;;;;;;;;;47.25;40.50;;;;;1.19;59.76;102375.94;5077634;27;45308;-38
2024/01/11 00:31:05;;;;;;;;;45.25;40.00;;;;;1.27;59.82;102388.81;5077693;27;45442;-42
2024/01/11 00:33:31;;;;;;;;;24.25;15.25;;;;;1.24;59.95;102387.13;5077833;27;45547;-40
2024/01/11 00:35:56;;;;;;;;;41.50;36.50;;;;;1.23;59.99;102398.53;5077012;27;46282;-40
2024/01/11 00:38:21;;;;;;;;;49.25;37.25;;;;;1.23;59.90;102398.53;5077496;27;45389;-39
2024/01/11 00:40:47;;;;;;;;;52.00;41.00;;;;;1.17;59.68;102395.22;5077407;27;45363;-40
2024/01/11 00:43:12;;;;;;;;;56.00;38.50;;;;;1.20;59.99;102401.25;5077594;27;45302;-39
2024/01/11 00:48:59;;;;;;;;;49.75;36.75;;;;;1.22;59.64;102411.66;5072378;22;46659;-38
2024/01/11 00:51:24;;;;;;;;;56.75;43.50;;;;;1.21;59.95;102420.44;4994310;28;45345;-40
2024/01/11 00:53:49;;;;;;;;;49.50;41.00;;;;;1.18;59.81;102418.78;4994831;28;45420;-39
2024/01/11 00:56:19;;;;;;;;;47.75;30.00;;;;;1.13;60.27;102407.56;4993956;28;45590;-40
2024/01/11 00:58:44;;;;;;;;;58.00;42.75;;;;;1.19;60.03;102419.66;4994139;28;45356;-39
2024/01/11 01:01:10;;;;;;;;;49.50;38.50;;;;;1.14;59.94;102417.16;4994200;28;45246;-39
2024/01/11 01:03:36;;;;;;;;;48.00;41.75;;;;;1.09;60.36;102407.69;4994448;28;45404;-39
2024/01/11 01:06:02;;;;;;;;;51.25;38.75;;;;;1.16;60.06;102415.34;4993749;28;46213;-39
2024/01/11 01:08:27;;;;;;;;;48.25;38.50;;;;;1.16;60.39;102420.59;4992744;28;45391;-39
2024/01/11 01:10:53;;;;;;;;;54.50;42.25;;;;;1.13;60.50;102417.19;4994057;28;45336;-40
2024/01/11 01:13:18;;;;;;;;;37.00;30.75;;;;;1.10;60.39;102417.31;4994338;28;45397;-46
2024/01/11 01:15:43;;;;;;;;;47.25;38.25;;;;;1.04;59.98;102405.22;4993917;28;45310;-40
2024/01/11 01:18:09;;;;;;;;;37.00;32.75;;;;;1.05;60.09;102404.31;4993838;28;45316;-40
2024/01/11 01:20:34;;;;;;;;;49.00;37.25;;;;;1.03;60.79;102406.13;4993999;28;45327;-39
2024/01/11 01:22:59;;;;;;;;;53.00;35.75;;;;;0.99;60.52;102407.13;4993924;28;45338;-40
2024/01/11 01:25:25;;;;;;;;;54.50;38.25;;;;;1.04;60.62;102415.69;4993543;28;47598;-39
2024/01/11 01:27:50;;;;;;;;;45.25;35.50;;;;;1.07;60.59;102414.75;4993673;28;45409;-41
2024/01/11 01:30:16;;;;;;;;;52.25;40.50;;;;;1.05;61.00;102425.28;4994065;28;45300;-40
2024/01/11 01:32:41;;;;;;;;;48.25;38.00;;;;;1.07;60.70;102427.88;4994062;28;45317;-38
2024/01/11 01:35:07;;;;;;;;;52.75;39.25;;;;;1.04;60.58;102418.31;4993734;28;45549;-40
2024/01/11 01:37:33;;;;;;;;;44.25;38.50;;;;;1.04;60.77;102420.94;4993445;28;45293;-40
2024/01/11 01:39:58;;;;;;;;;46.50;34.25;;;;;1.08;60.36;102440.91;4993737;28;45374;-39
2024/01/11 01:42:23;;;;;;;;;39.25;33.50;;;;;1.08;61.36;102437.44;4993895;28;45247;-40
2024/01/11 01:44:48;;;;;;;;;47.00;36.75;;;;;1.09;61.02;102437.38;4993760;28;46044;-40
2024/01/11 01:47:14;;;;;;;;;43.00;33.75;;;;;1.10;60.67;102444.38;4993310;28;45255;-38
2024/01/11 01:49:40;;;;;;;;;55.00;38.50;;;;;0.98;60.74;102431.63;4993543;28;45296;-40
2024/01/11 01:52:07;;;;;;;;;42.00;37.00;;;;;1.09;60.84;102462.75;4993813;28;45343;-40
2024/01/11 01:54:33;;;;;;;;;43.25;38.50;;;;;1.09;61.28;102465.34;4993501;28;45461;-40
2024/01/11 01:56:59;;;;;;;;;51.00;38.75;;;;;1.09;61.39;102473.22;4993462;28;45392;-40
2024/01/11 01:59:26;;;;;;;;;56.50;42.75;;;;;1.11;60.54;102468.81;4995989;28;45307;-40
2024/01/11 02:01:52;;;;;;;;;50.00;42.00;;;;;1.08;60.88;102469.75;4996621;28;45393;-40
2024/01/11 02:04:18;;;;;;;;;39.00;32.75;;;;;1.10;60.62;102477.59;4996124;28;46260;-41
2024/01/11 02:06:46;;;;;;;;;57.00;42.25;;;;;1.10;60.97;102488.94;4996159;28;45266;-40
2024/01/11 02:09:13;;;;;;;;;55.00;39.00;;;;;1.10;60.81;102481.06;4996383;28;45396;-41
2024/01/11 02:11:40;;;;;;;;;39.00;22.50;;;;;1.08;60.70;102477.59;4996539;28;45495;-40
2024/01/11 02:14:06;;;;;;;;;51.75;45.25;;;;;1.09;60.68;102479.31;4996182;28;45410;-40
2024/01/11 02:16:31;;;;;;;;;40.00;35.75;;;;;1.09;60.71;102489.81;4995872;28;45351;-40
2024/01/11 02:18:57;;;;;;;;;58.75;40.75;;;;;1.02;60.57;102477.78;4996204;28;45279;-40
2024/01/11 02:21:23;;;;;;;;;45.50;38.50;;;;;1.07;60.78;102491.63;4996390;28;45314;-40
2024/01/11 02:24:06;;;;;;;;;41.50;34.25;;;;;1.07;60.54;102496.00;4995976;28;45584;-41
2024/01/11 02:26:33;;;;;;;;;63.25;41.75;;;;;1.05;60.81;102489.94;4996007;28;45238;-40
2024/01/11 02:28:58;;;;;;;;;44.25;33.25;;;;;1.05;60.64;102487.31;4995962;28;45322;-40
2024/01/11 02:31:24;;;;;;;;;44.75;38.00;;;;;1.06;60.62;102494.28;4996298;28;45287;-40
2024/01/11 02:33:52;;;;;;;;;40.00;32.25;;;;;1.05;61.13;102497.78;4995955;28;46264;-39
2024/01/11 02:36:18;;;;;;;;;39.00;32.50;;;;;1.00;60.71;102501.41;4995641;28;45382;-41
2024/01/11 02:38:44;;;;;;;;;52.75;39.25;;;;;1.03;60.96;102504.84;4996063;28;45425;-40
2024/01/11 02:41:11;;;;;;;;;49.25;39.00;;;;;0.98;60.42;102505.00;4996029;28;45352;-40
2024/01/11 02:43:36;;;;;;;;;61.75;42.00;;;;;0.91;60.73;102490.31;4995830;28;45450;-40
2024/01/11 02:46:02;;;;;;;;;64.25;43.25;;;;;1.02;60.86;102511.00;4995698;28;45381;-40
2024/01/11 02:48:29;;;;;;;;;54.25;37.75;;;;;0.96;61.08;102510.25;4995730;28;45388;-39
2024/01/11 02:50:55;;;;;;;;;49.00;40.00;;;;;0.91;60.49;102496.41;4995932;28;45614;-40
2024/01/11 02:53:21;;;;;;;;;49.50;39.00;;;;;1.00;61.14;102509.25;4995780;28;45278;-40
2024/01/11 02:55:46;;;;;;;;;53.00;41.50;;;;;1.00;60.90;102511.88;4995513;28;45563;-39
2024/01/11 02:58:11;;;;;;;;;49.50;44.00;;;;;0.98;61.08;102500.59;4995713;28;45309;-39
2024/01/11 03:00:37;;;;;;;;;54.25;45.00;;;;;0.96;60.94;102498.91;4996031;28;45396;-40
2024/01/11 03:03:02;;;;;;;;;49.25;34.75;;;;;0.98;61.29;102503.22;4995689;28;45408;-41
2024/01/11 03:05:28;;;;;;;;;49.50;36.50;;;;;0.99;61.16;102504.06;4995560;28;45403;-41
2024/01/11 03:07:53;;;;;;;;;42.75;35.00;;;;;0.97;61.20;102506.75;4995655;28;45404;-41
2024/01/11 03:10:18;;;;;;;;;49.75;37.50;;;;;0.93;60.68;102496.41;4995549;28;45321;-41
2024/01/11 03:12:44;;;;;;;;;43.50;35.00;;;;;0.98;60.73;102508.47;4995501;28;46568;-41
2024/01/11 03:15:09;;;;;;;;;50.75;43.00;;;;;0.99;60.94;102515.41;4995567;28;45406;-45
2024/01/11 03:17:35;;;;;;;;;50.50;33.75;;;;;1.00;61.02;102521.50;4995487;28;45721;-41
2024/01/11 03:20:00;;;;;;;;;45.50;34.25;;;;;0.89;61.13;102502.63;4995983;28;45405;-40
2024/01/11 03:22:26;;;;;;;;;45.50;34.25;;;;;0.91;61.18;102500.81;4995123;28;45983;-40
2024/01/11 03:24:51;;;;;;;;;54.25;33.50;;;;;0.96;60.95;102514.63;4995431;28;45311;-39
2024/01/11 03:27:16;;;;;;;;;46.00;35.25;;;;;1.00;60.69;102521.50;4995386;28;45329;-41
2024/01/11 03:29:42;;;;;;;;;51.75;39.00;;;;;0.95;60.92;102502.44;4995596;28;45411;-40
2024/01/11 03:32:07;;;;;;;;;46.25;40.75;;;;;1.00;60.78;102511.88;4995298;28;46466;-40
2024/01/11 03:34:32;;;;;;;;;47.00;40.00;;;;;0.98;60.67;102505.84;4993880;28;45295;-40
2024/01/11 03:36:58;;;;;;;;;50.00;40.75;;;;;0.97;60.85;102509.38;4995155;28;45263;-41
2024/01/11 03:39:24;;;;;;;;;45.50;32.75;;;;;0.99;61.11;102514.56;4995629;28;45501;-38
2024/01/11 03:41:50;;;;;;;;;45.50;35.75;;;;;0.91;60.96;102504.28;4995124;28;47530;-39
2024/01/11 03:44:15;;;;;;;;;37.25;32.75;;;;;0.93;61.04;102502.50;4995348;28;45268;-40
2024/01/11 03:46:40;;;;;;;;;46.00;33.25;;;;;1.00;61.07;102511.03;4995162;28;45230;-40
2024/01/11 03:49:07;;;;;;;;;43.75;35.25;;;;;0.95;61.49;102508.53;4995271;28;45351;-41
2024/01/11 03:51:33;;;;;;;;;43.50;29.75;;;;;1.01;60.67;102523.22;4995018;28;47134;-39
2024/01/11 03:53:58;;;;;;;;;50.50;37.25;;;;;1.02;60.95;102526.72;4995017;28;45324;-39
2024/01/11 03:56:23;;;;;;;;;58.50;37.25;;;;;1.00;61.33;102525.00;4995059;28;45349;-39
2024/01/11 03:58:49;;;;;;;;;50.75;41.75;;;;;0.99;61.07;102525.91;4995180;28;45344;-39
2024/01/11 04:01:14;;;;;;;;;56.00;42.75;;;;;1.00;61.20;102518.88;4994731;28;46822;-40
2024/01/11 04:03:41;;;;;;;;;46.00;36.75;;;;;0.89;61.32;102507.88;4994905;28;45407;-38
2024/01/11 04:06:07;;;;;;;;;52.75;41.00;;;;;0.97;61.35;102514.63;4994858;28;45329;-40
2024/01/11 04:08:32;;;;;;;;;42.00;38.00;;;;;1.02;61.05;102524.97;4994919;28;45383;-40
2024/01/11 04:10:57;;;;;;;;;53.75;39.00;;;;;1.02;61.06;102524.09;4994780;28;45423;-38
2024/01/11 04:13:24;;;;;;;;;64.75;41.50;;;;;0.96;61.06;102520.72;4994864;28;45237;-40
2024/01/11 04:15:49;;;;;;;;;36.50;35.50;;;;;0.98;61.03;102525.94;4995031;28;45299;-40
2024/01/11 04:18:14;;;;;;;;;38.00;32.50;;;;;0.98;60.94;102523.31;4994944;28;45407;-40
2024/01/11 04:20:40;;;;;;;;;59.25;35.50;;;;;0.97;61.31;102526.84;4993353;28;45556;-39
2024/01/11 04:23:05;;;;;;;;;49.00;37.00;;;;;0.98;61.10;102534.66;4994453;28;45444;-39
2024/01/11 04:25:30;;;;;;;;;44.75;39.50;;;;;0.96;61.36;102533.84;4994715;28;45266;-40
2024/01/11 04:27:55;;;;;;;;;42.75;36.50;;;;;0.91;61.09;102540.09;4994975;28;45438;-39
2024/01/11 04:30:21;;;;;;;;;53.50;44.00;;;;;0.94;61.29;102546.13;4994542;28;47153;-41
2024/01/11 04:32:46;;;;;;;;;42.00;34.75;;;;;0.93;61.23;102551.41;4994416;28;45320;-40
2024/01/11 04:35:11;;;;;;;;;40.50;34.25;;;;;0.92;61.18;102553.16;4994541;28;45294;-41
2024/01/11 04:37:37;;;;;;;;;49.75;34.75;;;;;0.90;60.80;102557.59;4994662;28;45313;-40
2024/01/11 04:40:03;;;;;;;;;51.25;40.00;;;;;0.86;61.14;102555.94;4994267;28;45741;-38
2024/01/11 04:42:28;;;;;;;;;47.00;33.00;;;;;0.84;61.28;102549.00;4994433;28;45471;-41
2024/01/11 04:44:54;;;;;;;;;51.25;34.50;;;;;0.86;61.29;102563.81;4994609;28;45716;-40
2024/01/11 04:47:19;;;;;;;;;37.50;34.75;;;;;0.81;61.35;102551.75;4994608;28;45415;-40
2024/01/11 04:49:45;;;;;;;;;56.75;42.00;;;;;0.83;61.20;102544.69;4994261;28;45468;-40
2024/01/11 04:52:10;;;;;;;;;42.75;39.00;;;;;0.81;61.36;102549.97;4994403;28;45441;-40
2024/01/11 04:54:36;;;;;;;;;47.75;29.00;;;;;0.81;61.32;102546.50;4994292;28;45325;-40
2024/01/11 04:57:01;;;;;;;;;44.50;35.00;;;;;0.81;61.54;102544.75;4994402;28;45469;-40
2024/01/11 04:59:26;;;;;;;;;47.25;36.50;;;;;0.81;61.95;102549.13;5079013;27;46416;-40
2024/01/11 05:01:52;;;;;;;;;49.50;33.25;;;;;0.77;61.31;102556.19;4994165;28;45403;-39
2024/01/11 05:04:17;;;;;;;;;55.50;41.50;;;;;0.78;61.63;102551.81;4994229;28;45398;-40
2024/01/11 05:06:42;;;;;;;;;47.75;36.50;;;;;0.79;62.05;102561.38;4994432;28;45283;-40
2024/01/11 05:09:08;;;;;;;;;48.50;38.50;;;;;0.76;61.45;102559.72;4993785;28;46073;-40
2024/01/11 05:11:33;;;;;;;;;45.25;38.00;;;;;0.78;61.44;102557.06;4993784;28;45218;-39
2024/01/11 05:13:58;;;;;;;;;52.00;43.50;;;;;0.74;61.71;102553.66;4994024;28;45239;-40
2024/01/11 05:16:28;;;;;;;;;55.75;45.25;;;;;0.77;61.59;102557.97;4994052;28;45300;-39
2024/01/11 05:18:55;;;;;;;;;56.00;40.50;;;;;0.77;61.95;102564.06;4993741;28;47062;-40
2024/01/11 05:21:21;;;;;;;;;60.00;41.25;;;;;0.76;61.90;102564.97;4993843;28;45305;-40
2024/01/11 05:23:46;;;;;;;;;54.75;35.75;;;;;0.78;62.15;102570.16;4993798;28;45373;-40
2024/01/11 05:26:14;;;;;;;;;59.50;41.75;;;;;0.75;62.07;102561.44;4992880;28;45327;-40
2024/01/11 05:28:39;;;;;;;;;51.00;42.75;;;;;0.70;61.84;102552.00;4993684;28;45434;-40
2024/01/11 05:31:10;;;;;;;;;46.25;32.25;;;;;0.69;62.41;102555.53;4995642;27;45375;-40
2024/01/11 05:33:36;;;;;;;;;49.00;39.25;;;;;0.71;61.74;102556.34;4992416;28;45778;-40
2024/01/11 05:36:01;;;;;;;;;53.50;37.50;;;;;0.68;62.20;102549.44;4993794;28;45401;-39
2024/01/11 05:38:26;;;;;;;;;48.50;38.00;;;;;0.74;62.17;102561.50;4993238;28;45905;-40
2024/01/11 05:40:52;;;;;;;;;45.50;35.00;;;;;0.75;62.22;102564.06;5008423;28;52871;-39
2024/01/11 05:43:17;;;;;;;;;41.25;34.25;;;;;0.72;62.44;102566.78;4993622;28;45328;-41
2024/01/11 05:45:42;;;;;;;;;59.00;43.25;;;;;0.78;62.35;102578.00;4993752;28;45227;-40
2024/01/11 05:48:08;;;;;;;;;39.00;30.25;;;;;0.77;62.37;102577.16;4992644;28;49213;-41
2024/01/11 05:50:33;;;;;;;;;42.00;35.50;;;;;0.78;62.45;102578.84;4993286;28;45258;-40
2024/01/11 05:52:58;;;;;;;;;52.25;37.50;;;;;0.78;62.60;102584.09;4993235;28;45322;-40
2024/01/11 05:55:24;;;;;;;;;50.75;40.25;;;;;0.78;62.50;102578.84;4993632;28;45420;-40
2024/01/11 05:57:49;;;;;;;;;46.25;32.00;;;;;0.79;62.48;102574.47;4993099;28;46216;-40
2024/01/11 06:00:15;;;;;;;;;40.50;24.25;;;;;0.79;62.45;102585.81;4993150;28;45310;-39
2024/01/11 06:02:40;;;;;;;;;56.75;39.25;;;;;0.77;62.23;102584.16;4993208;28;45397;-39
2024/01/11 06:05:08;;;;;;;;;35.75;33.25;;;;;0.80;62.15;102589.28;4993461;28;45393;-40
2024/01/11 06:07:33;;;;;;;;;48.00;39.75;;;;;0.75;62.37;102584.16;4993136;28;46040;-42
2024/01/11 06:10:01;;;;;;;;;57.00;42.50;;;;;0.80;62.32;102595.41;4993074;28;45381;-39
2024/01/11 06:12:26;;;;;;;;;42.00;37.00;;;;;0.80;61.98;102599.78;4993135;28;45347;-40
2024/01/11 06:14:51;;;;;;;;;47.50;36.50;;;;;0.80;62.41;102605.00;4993386;28;45392;-39
2024/01/11 06:17:17;;;;;;;;;51.50;39.25;;;;;0.79;62.17;102614.63;4992715;28;46089;-39
2024/01/11 06:19:42;;;;;;;;;52.75;36.75;;;;;0.76;62.57;102614.72;4992993;28;45319;-40
2024/01/11 06:22:07;;;;;;;;;58.00;39.25;;;;;0.81;62.56;102620.72;5008208;28;45356;-40
2024/01/11 06:24:33;;;;;;;;;41.25;31.00;;;;;0.80;62.58;102618.09;4993099;28;46214;-39
2024/01/11 06:26:58;;;;;;;;;42.00;34.25;;;;;0.81;62.49;102630.34;4993681;28;45365;-40
2024/01/11 06:29:23;;;;;;;;;38.50;34.25;;;;;0.80;62.41;102631.22;4992914;28;45399;-40
2024/01/11 06:31:49;;;;;;;;;47.50;33.50;;;;;0.79;62.52;102626.88;4992891;28;45287;-40
2024/01/11 06:34:14;;;;;;;;;31.75;12.25;;;;;0.79;62.46;102624.25;4993434;28;45252;-40
2024/01/11 06:36:40;;;;;;;;;44.00;37.25;;;;;0.79;63.00;102617.25;4992687;28;46820;-40
2024/01/11 06:39:05;;;;;;;;;37.75;32.50;;;;;0.75;62.69;102611.22;4992539;28;46879;-41
2024/01/11 06:41:31;;;;;;;;;52.75;35.00;;;;;0.82;62.78;102634.66;4992914;28;45407;-40
2024/01/11 06:43:56;;;;;;;;;44.75;40.50;;;;;0.82;62.72;102643.38;4993548;28;45321;-38
2024/01/11 06:46:22;;;;;;;;;41.50;30.00;;;;;0.84;62.29;102656.44;4995964;28;46061;-40
2024/01/11 06:48:49;;;;;;;;;51.00;38.00;;;;;0.85;62.43;102666.91;4995804;28;45559;-40
2024/01/11 06:51:15;;;;;;;;;47.50;36.00;;;;;0.81;62.70;102661.78;4995818;28;45469;-41
2024/01/11 06:53:41;;;;;;;;;56.25;45.00;;;;;0.85;63.09;102671.28;4996129;28;45328;-39
2024/01/11 06:56:18;;;;;;;;;56.25;44.00;;;;;0.86;62.94;102675.63;4995580;28;45627;-40
2024/01/11 06:58:44;;;;;;;;;38.00;31.25;;;;;0.86;63.03;102673.84;4995813;28;45305;-40
2024/01/11 07:01:10;;;;;;;;;57.75;41.75;;;;;0.51;63.11;102614.47;4994461;28;45253;-39
2024/01/11 07:03:35;;;;;;;;;51.50;41.00;;;;;0.87;62.95;102672.09;4995788;28;45317;-40
2024/01/11 07:06:02;;;;;;;;;42.00;32.50;;;;;0.88;63.18;102682.53;4995677;28;45425;-39
2024/01/11 07:08:28;;;;;;;;;58.50;40.00;;;;;0.89;63.14;102678.16;4995268;28;45436;-41
2024/01/11 07:10:53;;;;;;;;;44.00;38.25;;;;;0.89;63.13;102678.16;4995806;28;45438;-40
2024/01/11 07:13:19;;;;;;;;;40.25;35.00;;;;;0.85;62.65;102666.91;4995900;28;45445;-40
2024/01/11 07:15:44;;;;;;;;;49.00;41.00;;;;;0.86;62.95;102670.38;4995266;28;47243;-40
2024/01/11 07:18:10;;;;;;;;;51.50;45.50;;;;;0.86;62.74;102676.47;4995541;28;45424;-40
2024/01/11 07:20:35;;;;;;;;;54.75;42.75;;;;;0.89;62.97;102676.41;4995499;28;45294;-39
2024/01/11 07:23:00;;;;;;;;;41.75;34.00;;;;;0.89;62.91;102681.66;4995834;28;45316;-40
2024/01/11 07:25:26;;;;;;;;;49.00;39.50;;;;;0.80;63.39;102667.88;4995459;28;46168;-40
2024/01/11 07:27:51;;;;;;;;;54.50;40.25;;;;;0.88;63.11;102694.75;4995256;28;45292;-39
2024/01/11 07:30:18;;;;;;;;;53.00;39.00;;;;;0.90;63.47;102698.22;4995421;28;45421;-39
2024/01/11 07:32:44;;;;;;;;;58.00;43.50;;;;;0.87;62.94;102698.28;4995605;28;45241;-38
2024/01/11 07:35:10;;;;;;;;;51.75;39.00;;;;;0.89;62.71;102713.09;4995091;28;45467;-39
2024/01/11 07:37:38;;;;;;;;;42.75;39.50;;;;;0.87;63.17;102706.16;4995166;28;45327;-39
2024/01/11 07:40:09;;;;;;;;;66.25;45.00;;;;;0.90;63.06;102712.19;4995182;28;45413;-40
2024/01/11 07:42:35;;;;;;;;;44.00;30.50;;;;;0.88;63.56;102705.25;4995442;28;45288;-39
2024/01/11 07:45:00;;;;;;;;;48.00;35.50;;;;;0.89;63.37;102697.38;4995127;28;46199;-38
2024/01/11 07:47:26;;;;;;;;;56.50;40.25;;;;;0.93;63.31;102706.88;4995076;28;45508;-39
2024/01/11 07:49:52;;;;;;;;;48.25;36.50;;;;;0.91;63.01;102703.41;4995335;27;45289;-38
2024/01/11 07:52:17;;;;;;;;;53.75;35.50;;;;;0.90;63.42;102701.69;4995299;28;45315;-40
2024/01/11 07:54:42;;;;;;;;;52.00;42.00;;;;;0.93;63.31;102703.41;4994560;28;50509;-40
2024/01/11 07:57:07;;;;;;;;;45.25;37.25;;;;;0.96;63.14;102703.31;4994894;28;45418;-39
2024/01/11 07:59:35;;;;;;;;;49.25;39.25;;;;;0.99;63.48;102716.34;4994489;28;45625;-39
2024/01/11 08:02:01;;;;;;;;;46.25;40.25;;;;;0.99;63.12;102725.06;4995072;28;45350;-41
2024/01/11 08:04:26;;;;;;;;;48.75;39.75;;;;;1.02;63.16;102728.53;4989594;28;45803;-40
2024/01/11 08:06:52;;;;;;;;;43.75;38.25;;;;;0.99;63.10;102729.44;4984928;28;48070;-39
2024/01/11 08:09:18;;;;;;;;;57.25;38.75;;;;;0.98;62.95;102722.50;4990484;28;45472;-38
2024/01/11 08:11:43;;;;;;;;;53.75;41.50;;;;;1.01;63.03;102732.88;4992194;28;45498;-40
2024/01/11 08:14:08;;;;;;;;;59.00;44.25;;;;;1.01;63.58;102727.63;4990468;28;49620;-40
2024/01/11 08:16:34;;;;;;;;;51.25;39.25;;;;;1.01;63.33;102738.13;4989968;28;45412;-40
2024/01/11 08:19:00;;;;;;;;;54.00;45.50;;;;;1.04;63.53;102731.94;4990721;28;45407;-40
2024/01/11 08:21:26;;;;;;;;;51.00;39.75;;;;;1.02;62.96;102718.91;4991318;28;45505;-40
2024/01/11 08:23:51;;;;;;;;;48.25;42.50;;;;;1.04;63.01;102719.72;4987972;28;46115;-39
2024/01/11 08:26:18;;;;;;;;;51.25;39.25;;;;;1.07;63.14;102717.03;4991183;28;45417;-39
2024/01/11 08:28:44;;;;;;;;;68.00;44.00;;;;;1.07;63.59;102709.16;4994385;28;45389;-40
2024/01/11 08:31:09;;;;;;;;;65.75;45.00;;;;;1.12;63.16;102714.28;4994549;28;45423;-38
2024/01/11 08:33:36;;;;;;;;;52.50;44.50;;;;;1.09;62.89;102707.34;4994320;28;45468;-39
2024/01/11 08:36:03;;;;;;;;;54.75;46.50;;;;;1.11;63.17;102713.44;4994102;28;45431;-38
2024/01/11 08:38:29;;;;;;;;;60.25;44.00;;;;;1.09;62.94;102715.22;4994233;28;45234;-40
2024/01/11 08:40:55;;;;;;;;;51.25;41.50;;;;;1.10;63.14;102705.63;4994514;28;45214;-39
2024/01/11 08:43:20;;;;;;;;;48.25;37.25;;;;;1.20;62.61;102728.94;4993747;28;45614;-40
2024/01/11 08:45:46;;;;;;;;;45.00;34.00;;;;;1.23;62.63;102746.34;4994364;28;45357;-41
2024/01/11 08:48:13;;;;;;;;;56.25;40.00;;;;;1.24;62.61;102732.34;4993904;28;45495;-39
2024/01/11 08:50:38;;;;;;;;;59.25;40.00;;;;;1.20;62.33;102723.69;4994343;28;45415;-39
2024/01/11 08:53:04;;;;;;;;;58.00;37.00;;;;;1.17;62.42;102704.53;4994052;28;46921;-40
2024/01/11 08:55:29;;;;;;;;;62.25;46.50;;;;;1.31;62.62;102725.19;4992201;28;45442;-39
2024/01/11 08:57:54;;;;;;;;;56.00;43.00;;;;;1.34;62.36;102738.19;4994146;28;45316;-40
2024/01/11 09:00:20;;;;;;;;;56.75;36.25;;;;;1.38;62.28;102743.31;4993945;28;45356;-38
2024/01/11 09:02:48;;;;;;;;;53.75;42.50;;;;;1.41;62.10;102734.53;4993877;28;46331;-40
2024/01/11 09:05:16;;;;;;;;;46.75;42.50;;;;;1.44;62.09;102735.31;4993776;28;45514;-38
2024/01/11 09:07:42;;;;;;;;;64.25;43.25;;;;;1.43;61.93;102730.97;4993123;28;45520;-40
2024/01/11 09:10:12;;;;;;;;;56.50;42.50;;;;;1.52;62.18;102747.34;4993857;28;45492;-40
2024/01/11 09:12:37;;;;;;;;;63.25;39.75;;;;;1.51;62.06;102733.38;4993598;28;46053;-41
2024/01/11 09:15:03;;;;;;;;;41.50;37.50;;;;;1.58;61.76;102749.84;5008850;28;45915;-40
2024/01/11 09:17:28;;;;;;;;;49.00;39.50;;;;;1.65;61.50;102754.91;4993631;28;45457;-40
2024/01/11 09:19:54;;;;;;;;;70.50;47.00;;;;;1.74;61.49;102759.03;4994029;28;45356;-41
2024/01/11 09:22:19;;;;;;;;;50.75;37.75;;;;;1.84;61.15;102757.03;4994466;28;46243;-40
2024/01/11 09:24:44;;;;;;;;;58.75;48.00;;;;;1.97;60.80;102761.03;4993457;28;45404;-39
2024/01/11 09:27:10;;;;;;;;;53.25;47.00;;;;;2.22;60.80;102754.19;4993670;28;45189;-45
2024/01/11 09:29:35;;;;;;;;;52.00;42.50;;;;;3.09;59.51;102747.22;4993874;28;45368;-40
2024/01/11 09:32:01;;;;;;;;;53.50;42.00;;;;;3.94;57.49;102719.72;5008545;28;48216;-40
2024/01/11 09:34:26;;;;;;;;;57.50;45.00;;;;;5.08;55.51;102739.97;4993592;28;45349;-40
2024/01/11 09:36:52;;;;;;;;;49.25;36.75;;;;;6.09;53.14;102747.09;4993624;28;45609;-40
2024/01/11 09:39:18;;;;;;;;;64.00;47.00;;;;;7.06;50.98;102745.22;4993554;28;45284;-39
2024/01/11 09:41:52;;;;;;;;;58.25;47.75;;;;;7.87;49.03;102736.66;4993365;28;46266;-40
2024/01/11 09:44:18;;;;;;;;;65.25;48.50;;;;;8.58;47.04;102724.94;5078429;27;45937;-41
2024/01/11 09:46:43;;;;;;;;;63.50;44.75;;;;;9.21;46.27;102732.84;4993394;28;45455;-39
2024/01/11 09:49:10;;;;;;;;;65.50;47.00;;;;;9.82;45.60;102726.56;4993308;28;45326;-40
2024/01/11 09:51:38;;;;;;;;;55.25;40.00;;;;;10.33;43.30;102726.13;4992902;28;46770;-40
2024/01/11 09:54:04;;;;;;;;;42.75;40.75;;;;;10.87;42.61;102718.19;4993134;28;45416;-39
2024/01/11 09:56:29;;;;;;;;;50.00;41.25;;;;;11.45;41.95;102730.28;4993160;28;45189;-39
2024/01/11 09:58:55;;;;;;;;;51.50;38.25;;;;;11.91;41.25;102719.16;4993382;28;45255;-40
2024/01/11 10:01:23;;;;;;;;;54.50;45.50;;;;;12.30;40.04;102709.31;4992861;28;45397;-41
2024/01/11 10:03:48;;;;;;;;;56.25;43.50;;;;;12.74;39.28;102698.94;4989787;28;45450;-41
2024/01/11 10:06:15;;;;;;;;;59.50;41.50;;;;;13.17;38.07;102714.44;5008275;28;45393;-38
2024/01/11 10:08:40;;;;;;;;;58.75;47.00;;;;;13.55;38.03;102728.56;4993246;28;45324;-39
2024/01/11 10:11:06;;;;;;;;;51.00;38.25;;;;;13.86;37.71;102705.63;4992576;28;46012;-40
2024/01/11 10:13:32;;;;;;;;;55.00;42.50;;;;;14.25;36.88;102715.03;4992825;28;45399;-39
2024/01/11 10:16:08;;;;;;;;;55.50;40.00;;;;;14.37;36.01;102723.91;4992931;28;45368;-39
2024/01/11 10:18:33;;;;;;;;;57.50;45.50;;;;;14.65;36.80;102727.88;4992841;27;45468;-39
2024/01/11 10:20:59;;;;;;;;;51.75;43.25;;;;;14.84;34.37;102721.91;4995700;28;46397;-39
2024/01/11 10:23:24;;;;;;;;;59.50;43.75;;;;;14.96;34.24;102712.84;4995756;28;45335;-40
2024/01/11 10:25:49;;;;;;;;;61.50;43.50;;;;;15.09;35.00;102710.84;4995793;28;45235;-40
2024/01/11 10:28:15;;;;;;;;;52.75;43.00;;;;;15.19;35.26;102703.72;4996134;28;45263;-40
2024/01/11 10:30:41;;;;;;;;;59.75;45.00;;;;;15.16;33.33;102679.84;4995446;28;45436;-40
2024/01/11 10:33:07;;;;;;;;;57.00;44.25;;;;;15.29;32.47;102690.38;4995794;28;45472;-38
2024/01/11 10:35:35;;;;;;;;;61.50;48.50;;;;;15.11;33.96;102702.66;4995843;28;45343;-39
2024/01/11 10:38:08;;;;;;;;;56.00;43.25;;;;;15.01;32.52;102696.38;4995564;28;45447;-39
2024/01/11 10:40:33;;;;;;;;;49.75;37.75;;;;;14.42;32.67;102700.28;4995558;28;46732;-40
2024/01/11 10:43:01;;;;;;;;;67.25;50.50;;;;;13.33;34.26;102711.50;4995491;28;45328;-40
2024/01/11 10:45:27;;;;;;;;;54.00;44.25;;;;;12.27;34.49;102685.53;4995478;28;45643;-40
2024/01/11 10:48:01;;;;;;;;;56.50;42.50;;;;;11.66;36.33;102699.50;4995649;28;45433;-38
2024/01/11 10:50:30;;;;;;;;;56.00;45.75;;;;;11.54;37.60;102695.00;4995349;28;46287;-40
2024/01/11 10:53:04;;;;;;;;;59.25;45.75;;;;;11.89;36.70;102651.78;4995509;28;45372;-40
2024/01/11 10:55:34;;;;;;;;;62.25;47.00;;;;;13.26;36.16;102714.72;4995289;28;45413;-39
2024/01/11 10:58:01;;;;;;;;;60.25;44.75;;;;;13.95;36.67;102710.28;4995210;28;45603;-40
2024/01/11 11:00:28;;;;;;;;;66.75;49.00;;;;;14.29;33.81;102715.63;4995241;28;46380;-39
2024/01/11 11:02:54;;;;;;;;;64.50;47.00;;;;;13.79;33.94;102715.13;4995580;28;45431;-38
2024/01/11 11:05:21;;;;;;;;;59.50;43.75;;;;;12.74;35.05;102720.28;4995320;28;45263;-40
2024/01/11 11:07:49;;;;;;;;;61.50;46.50;;;;;12.88;35.14;102713.94;4995918;28;45363;-40
2024/01/11 11:10:17;;;;;;;;;66.00;49.00;;;;;13.45;34.47;102699.00;4994973;28;46257;-39
2024/01/11 11:12:45;;;;;;;;;59.00;44.25;;;;;13.94;33.20;102700.53;4994846;28;45364;-39
2024/01/11 11:15:12;;;;;;;;;61.00;46.00;;;;;13.60;33.13;102695.13;4995341;28;45416;-40